Genco Loire — V7GN8 — position and weather

sailwx.info

Track history (hours):
 
Tides and Currents Weather Stations Pressure Air Temp Water Temp Dewpoint Dewpoint Depression Visibility Wind Speed Wind Dir Waves Ship Positions

Genco Loire

Last reported at 2017-Aug-13 20:08 UTC. Time now 2017-Aug-19 18:31 UTC.
Position N 37°15' E 023°59'.

Length 190 m; draft 11.3 m.

MMSI: 538002760.

Date/timePositionNaut miles runAvg speedWind from/ knotsBaromVisibWave heightAir tempDewpointWater temp
2017-Aug-13 20:08N 37°15' E 023°59'711.0
2017-Aug-13 19:31N 37°08' E 023°55'011.7
2017-Aug-13 19:30N 37°08' E 023°55'426 9.9
2017-Aug-12 00:40N 36°26' E 015°06'312.3
2017-Aug-12 00:26N 36°26' E 015°03'512.3
2017-Aug-12 00:00N 36°27' E 014°56'612.3
2017-Aug-11 23:30N 36°27' E 014°48'612.0
2017-Aug-11 23:00N 36°28' E 014°41'611.5
2017-Aug-11 22:30N 36°29' E 014°34'611.6
2017-Aug-11 22:00N 36°31' E 014°27'611.6
2017-Aug-11 21:30N 36°32' E 014°20'611.5
2017-Aug-11 21:00N 36°34' E 014°13'611.3
2017-Aug-11 20:30N 36°35' E 014°06'611.5
2017-Aug-11 20:00N 36°37' E 013°60'611.3
2017-Aug-11 19:30N 36°39' E 013°53'611.4
2017-Aug-11 19:00N 36°41' E 013°46'611.3
2017-Aug-11 18:30N 36°42' E 013°39'511.1
2017-Aug-11 18:00N 36°44' E 013°33'611.1
2017-Aug-11 17:30N 36°45' E 013°26'611.2
2017-Aug-11 17:00N 36°47' E 013°19'611.3
2017-Aug-11 16:30N 36°49' E 013°13'611.2
2017-Aug-11 16:00N 36°51' E 013°06'611.1
2017-Aug-11 15:30N 36°52' E 012°59'511.0
2017-Aug-11 15:00N 36°54' E 012°53'711.0
2017-Aug-11 14:25N 36°56' E 012°45'1011.1
2017-Aug-11 13:30N 36°59' E 012°33'52810.4
2017-Aug-09 10:43N 36°55' E 001°33'17111.3
2017-Aug-08 19:34N 36°24' W 001°57'1012.2
2017-Aug-08 18:45N 36°22' W 002°09'312.0
2017-Aug-08 18:30N 36°22' W 002°12'1311.7
2017-Aug-08 17:25N 36°20' W 002°28'611.6
2017-Aug-08 16:52N 36°19' W 002°36'11812.2
2017-Aug-08 07:15N 36°02' W 005°00'1011.8
2017-Aug-08 06:26N 36°01' W 005°12'512.0
2017-Aug-08 06:00N 36°03' W 005°17'510.0
2017-Aug-08 05:30N 36°06' W 005°22'1 1.1
2017-Aug-08 04:54N 36°07' W 005°22'0 0.0
2017-Aug-08 04:15N 36°07' W 005°22'0 0.0
2017-Aug-08 03:54N 36°07' W 005°22'0 0.1
2017-Aug-08 03:30N 36°07' W 005°22'0 0.0
2017-Aug-08 03:00N 36°07' W 005°22'0 0.0
2017-Aug-08 02:30N 36°07' W 005°22'0 0.1
2017-Aug-08 01:57N 36°07' W 005°22'0 0.1
2017-Aug-08 01:30N 36°07' W 005°22'0 0.0
2017-Aug-08 01:00N 36°07' W 005°22'0 0.0
2017-Aug-08 00:30N 36°07' W 005°22'0 0.1
2017-Aug-08 00:00N 36°07' W 005°22'0 0.2
2017-Aug-07 23:27N 36°07' W 005°22'0 0.0
2017-Aug-07 22:18N 36°07' W 005°22'0 0.1
2017-Aug-07 22:00N 36°07' W 005°22'0 0.1
2017-Aug-07 21:27N 36°07' W 005°22'0 0.1
2017-Aug-07 21:00N 36°07' W 005°22'0 0.2
2017-Aug-07 20:30N 36°07' W 005°22'0 0.5
2017-Aug-07 20:00N 36°07' W 005°22'0 0.1
2017-Aug-07 19:30N 36°07' W 005°22'1 2.6
2017-Aug-07 19:00N 36°06' W 005°22'1 1.4
2017-Aug-07 18:30N 36°05' W 005°22'2 4.8
2017-Aug-07 18:00N 36°03' W 005°22'3 6.8
2017-Aug-07 17:30N 35°59' W 005°22'4 9.0
2017-Aug-07 17:00N 35°58' W 005°27'8711.3
2017-Aug-07 09:19N 36°02' W 007°14'310.8
2017-Aug-07 09:00N 36°02' W 007°19'510.6
2017-Aug-07 08:30N 36°03' W 007°25'510.5
2017-Aug-07 08:00N 36°04' W 007°31'611.1
2017-Aug-07 07:30N 36°05' W 007°38'611.2
2017-Aug-07 07:00N 36°06' W 007°45'611.1
2017-Aug-07 06:30N 36°07' W 007°52'511.0
2017-Aug-07 06:00N 36°08' W 007°58'511.0
2017-Aug-07 05:30N 36°09' W 008°05'611.3
2017-Aug-07 05:00N 36°10' W 008°12'611.1
2017-Aug-07 04:30N 36°10' W 008°19'510.9
2017-Aug-07 04:00N 36°11' W 008°25'510.9
2017-Aug-07 03:30N 36°12' W 008°32'510.9
2017-Aug-07 03:00N 36°13' W 008°39'510.8
2017-Aug-07 02:30N 36°14' W 008°45'510.9
2017-Aug-07 02:00N 36°15' W 008°52'510.7
2017-Aug-07 01:30N 36°16' W 008°58'510.6
2017-Aug-07 01:00N 36°17' W 009°05'510.8
2017-Aug-07 00:30N 36°18' W 009°12'611.0
2017-Aug-07 00:00N 36°18' W 009°18'510.9
2017-Aug-06 23:30N 36°19' W 009°25'510.7
2017-Aug-06 23:00N 36°20' W 009°32'510.5
2017-Aug-06 22:30N 36°21' W 009°38'510.6
2017-Aug-06 22:00N 36°22' W 009°45'510.8
2017-Aug-06 21:30N 36°22' W 009°51'510.8
2017-Aug-06 21:00N 36°23' W 009°58'510.5
2017-Aug-06 20:30N 36°24' W 010°04'510.2
2017-Aug-06 20:00N 36°25' W 010°11'510.2
2017-Aug-06 19:30N 36°26' W 010°17'510.0
2017-Aug-06 19:00N 36°26' W 010°23'510.0
2017-Aug-06 18:30N 36°27' W 010°29'510.0
2017-Aug-06 18:00N 36°28' W 010°35'5 9.7
2017-Aug-06 17:30N 36°28' W 010°41'5 9.6
2017-Aug-06 17:00N 36°29' W 010°47'5 9.7
2017-Aug-06 16:28N 36°30' W 010°53'6 9.7
2017-Aug-06 15:49N 36°31' W 011°01'3 9.6
2017-Aug-06 15:30N 36°32' W 011°05'5 9.5
2017-Aug-06 15:00N 36°32' W 011°11'5 9.1
2017-Aug-06 14:30N 36°33' W 011°16'9 9.0
2017-Aug-06 13:30N 36°34' W 011°27'5 9.7
2017-Aug-06 13:00N 36°35' W 011°33'5 9.0
2017-Aug-06 12:29N 36°36' W 011°39'5 8.8
2017-Aug-06 11:52N 36°37' W 011°46'3 8.5
2017-Aug-06 11:30N 36°37' W 011°50'5 8.6
2017-Aug-06 10:58N 36°37' W 011°55'4 8.6
2017-Aug-06 10:30N 36°38' W 012°00'4 8.8
2017-Aug-06 10:00N 36°39' W 012°06'4 8.4
2017-Aug-06 09:30N 36°39' W 012°11'5 8.6
2017-Aug-06 08:57N 36°40' W 012°17'4 8.3
2017-Aug-06 08:28N 36°40' W 012°22'5 8.6
2017-Aug-06 07:54N 36°41' W 012°28'60 8.6
2017-Aug-06 00:56N 36°50' W 013°42'19 9.0
2017-Aug-05 22:51N 36°53' W 014°05'4 9.4
2017-Aug-05 22:24N 36°53' W 014°10'45210.7
2017-Aug-04 03:59N 37°27' W 023°36'611.6
2017-Aug-04 03:30N 37°27' W 023°43'611.5
2017-Aug-04 03:00N 37°27' W 023°50'611.4
2017-Aug-04 02:30N 37°27' W 023°57'611.1
2017-Aug-04 02:00N 37°27' W 024°04'510.8
2017-Aug-04 01:30N 37°27' W 024°11'611.0
2017-Aug-04 01:00N 37°27' W 024°18'511.0
2017-Aug-04 00:31N 37°27' W 024°25'611.6
2017-Aug-04 00:00N 37°27' W 024°32'611.7
2017-Aug-03 23:30N 37°27' W 024°39'611.7
2017-Aug-03 23:00N 37°27' W 024°47'511.1
2017-Aug-03 22:30N 37°28' W 024°54'611.1
2017-Aug-03 22:00N 37°28' W 025°01'611.3
2017-Aug-03 21:30N 37°28' W 025°08'611.3
2017-Aug-03 21:00N 37°28' W 025°15'511.0
2017-Aug-03 20:30N 37°28' W 025°22'  
Track history (hours):
 
Tides and Currents Weather Stations Pressure Air Temp Water Temp Dewpoint Dewpoint Depression Visibility Wind Speed Wind Dir Waves Ship Positions

Genco Loire

Last reported at 2017-Aug-13 20:08 UTC. Time now 2017-Aug-19 18:31 UTC.
Position N 37°15' E 023°59'.

Length 190 m; draft 11.3 m.

MMSI: 538002760.

Date/timePositionNaut miles runAvg speedWind from/ knotsBaromVisibWave heightAir tempDewpointWater temp
2017-Aug-13 20:08N 37°15' E 023°59'711.0
2017-Aug-13 19:31N 37°08' E 023°55'011.7
2017-Aug-13 19:30N 37°08' E 023°55'426 9.9
2017-Aug-12 00:40N 36°26' E 015°06'312.3
2017-Aug-12 00:26N 36°26' E 015°03'512.3
2017-Aug-12 00:00N 36°27' E 014°56'612.3
2017-Aug-11 23:30N 36°27' E 014°48'612.0
2017-Aug-11 23:00N 36°28' E 014°41'611.5
2017-Aug-11 22:30N 36°29' E 014°34'611.6
2017-Aug-11 22:00N 36°31' E 014°27'611.6
2017-Aug-11 21:30N 36°32' E 014°20'611.5
2017-Aug-11 21:00N 36°34' E 014°13'611.3
2017-Aug-11 20:30N 36°35' E 014°06'611.5
2017-Aug-11 20:00N 36°37' E 013°60'611.3
2017-Aug-11 19:30N 36°39' E 013°53'611.4
2017-Aug-11 19:00N 36°41' E 013°46'611.3
2017-Aug-11 18:30N 36°42' E 013°39'511.1
2017-Aug-11 18:00N 36°44' E 013°33'611.1
2017-Aug-11 17:30N 36°45' E 013°26'611.2
2017-Aug-11 17:00N 36°47' E 013°19'611.3
2017-Aug-11 16:30N 36°49' E 013°13'611.2
2017-Aug-11 16:00N 36°51' E 013°06'611.1
2017-Aug-11 15:30N 36°52' E 012°59'511.0
2017-Aug-11 15:00N 36°54' E 012°53'711.0
2017-Aug-11 14:25N 36°56' E 012°45'1011.1
2017-Aug-11 13:30N 36°59' E 012°33'52810.4
2017-Aug-09 10:43N 36°55' E 001°33'17111.3
2017-Aug-08 19:34N 36°24' W 001°57'1012.2
2017-Aug-08 18:45N 36°22' W 002°09'312.0
2017-Aug-08 18:30N 36°22' W 002°12'1311.7
2017-Aug-08 17:25N 36°20' W 002°28'611.6
2017-Aug-08 16:52N 36°19' W 002°36'11812.2
2017-Aug-08 07:15N 36°02' W 005°00'1011.8
2017-Aug-08 06:26N 36°01' W 005°12'512.0
2017-Aug-08 06:00N 36°03' W 005°17'510.0
2017-Aug-08 05:30N 36°06' W 005°22'1 1.1
2017-Aug-08 04:54N 36°07' W 005°22'0 0.0
2017-Aug-08 04:15N 36°07' W 005°22'0 0.0
2017-Aug-08 03:54N 36°07' W 005°22'0 0.1
2017-Aug-08 03:30N 36°07' W 005°22'0 0.0
2017-Aug-08 03:00N 36°07' W 005°22'0 0.0
2017-Aug-08 02:30N 36°07' W 005°22'0 0.1
2017-Aug-08 01:57N 36°07' W 005°22'0 0.1
2017-Aug-08 01:30N 36°07' W 005°22'0 0.0
2017-Aug-08 01:00N 36°07' W 005°22'0 0.0
2017-Aug-08 00:30N 36°07' W 005°22'0 0.1
2017-Aug-08 00:00N 36°07' W 005°22'0 0.2
2017-Aug-07 23:27N 36°07' W 005°22'0 0.0
2017-Aug-07 22:18N 36°07' W 005°22'0 0.1
2017-Aug-07 22:00N 36°07' W 005°22'0 0.1
2017-Aug-07 21:27N 36°07' W 005°22'0 0.1
2017-Aug-07 21:00N 36°07' W 005°22'0 0.2
2017-Aug-07 20:30N 36°07' W 005°22'0 0.5
2017-Aug-07 20:00N 36°07' W 005°22'0 0.1
2017-Aug-07 19:30N 36°07' W 005°22'1 2.6
2017-Aug-07 19:00N 36°06' W 005°22'1 1.4
2017-Aug-07 18:30N 36°05' W 005°22'2 4.8
2017-Aug-07 18:00N 36°03' W 005°22'3 6.8
2017-Aug-07 17:30N 35°59' W 005°22'4 9.0
2017-Aug-07 17:00N 35°58' W 005°27'8711.3
2017-Aug-07 09:19N 36°02' W 007°14'310.8
2017-Aug-07 09:00N 36°02' W 007°19'510.6
2017-Aug-07 08:30N 36°03' W 007°25'510.5
2017-Aug-07 08:00N 36°04' W 007°31'611.1
2017-Aug-07 07:30N 36°05' W 007°38'611.2
2017-Aug-07 07:00N 36°06' W 007°45'611.1
2017-Aug-07 06:30N 36°07' W 007°52'511.0
2017-Aug-07 06:00N 36°08' W 007°58'511.0
2017-Aug-07 05:30N 36°09' W 008°05'611.3
2017-Aug-07 05:00N 36°10' W 008°12'611.1
2017-Aug-07 04:30N 36°10' W 008°19'510.9
2017-Aug-07 04:00N 36°11' W 008°25'510.9
2017-Aug-07 03:30N 36°12' W 008°32'510.9
2017-Aug-07 03:00N 36°13' W 008°39'510.8
2017-Aug-07 02:30N 36°14' W 008°45'510.9
2017-Aug-07 02:00N 36°15' W 008°52'510.7
2017-Aug-07 01:30N 36°16' W 008°58'510.6
2017-Aug-07 01:00N 36°17' W 009°05'510.8
2017-Aug-07 00:30N 36°18' W 009°12'611.0
2017-Aug-07 00:00N 36°18' W 009°18'510.9
2017-Aug-06 23:30N 36°19' W 009°25'510.7
2017-Aug-06 23:00N 36°20' W 009°32'510.5
2017-Aug-06 22:30N 36°21' W 009°38'510.6
2017-Aug-06 22:00N 36°22' W 009°45'510.8
2017-Aug-06 21:30N 36°22' W 009°51'510.8
2017-Aug-06 21:00N 36°23' W 009°58'510.5
2017-Aug-06 20:30N 36°24' W 010°04'510.2
2017-Aug-06 20:00N 36°25' W 010°11'510.2
2017-Aug-06 19:30N 36°26' W 010°17'510.0
2017-Aug-06 19:00N 36°26' W 010°23'510.0
2017-Aug-06 18:30N 36°27' W 010°29'510.0
2017-Aug-06 18:00N 36°28' W 010°35'5 9.7
2017-Aug-06 17:30N 36°28' W 010°41'5 9.6
2017-Aug-06 17:00N 36°29' W 010°47'5 9.7
2017-Aug-06 16:28N 36°30' W 010°53'6 9.7
2017-Aug-06 15:49N 36°31' W 011°01'3 9.6
2017-Aug-06 15:30N 36°32' W 011°05'5 9.5
2017-Aug-06 15:00N 36°32' W 011°11'5 9.1
2017-Aug-06 14:30N 36°33' W 011°16'9 9.0
2017-Aug-06 13:30N 36°34' W 011°27'5 9.7
2017-Aug-06 13:00N 36°35' W 011°33'5 9.0
2017-Aug-06 12:29N 36°36' W 011°39'5 8.8
2017-Aug-06 11:52N 36°37' W 011°46'3 8.5
2017-Aug-06 11:30N 36°37' W 011°50'5 8.6
2017-Aug-06 10:58N 36°37' W 011°55'4 8.6
2017-Aug-06 10:30N 36°38' W 012°00'4 8.8
2017-Aug-06 10:00N 36°39' W 012°06'4 8.4
2017-Aug-06 09:30N 36°39' W 012°11'5 8.6
2017-Aug-06 08:57N 36°40' W 012°17'4 8.3
2017-Aug-06 08:28N 36°40' W 012°22'5 8.6
2017-Aug-06 07:54N 36°41' W 012°28'60 8.6
2017-Aug-06 00:56N 36°50' W 013°42'19 9.0
2017-Aug-05 22:51N 36°53' W 014°05'4 9.4
2017-Aug-05 22:24N 36°53' W 014°10'45210.7
2017-Aug-04 03:59N 37°27' W 023°36'611.6
2017-Aug-04 03:30N 37°27' W 023°43'611.5
2017-Aug-04 03:00N 37°27' W 023°50'611.4
2017-Aug-04 02:30N 37°27' W 023°57'611.1
2017-Aug-04 02:00N 37°27' W 024°04'510.8
2017-Aug-04 01:30N 37°27' W 024°11'611.0
2017-Aug-04 01:00N 37°27' W 024°18'511.0
2017-Aug-04 00:31N 37°27' W 024°25'611.6
2017-Aug-04 00:00N 37°27' W 024°32'611.7
2017-Aug-03 23:30N 37°27' W 024°39'611.7
2017-Aug-03 23:00N 37°27' W 024°47'511.1
2017-Aug-03 22:30N 37°28' W 024°54'611.1
2017-Aug-03 22:00N 37°28' W 025°01'611.3
2017-Aug-03 21:30N 37°28' W 025°08'611.3
2017-Aug-03 21:00N 37°28' W 025°15'511.0
2017-Aug-03 20:30N 37°28' W 025°22'  

Dump ship's entire track history